Time;durP1;ratioP1;P1;durP2;ratioP2;P2;SDS_P1;SDS_P2;PMS_P1;PMS_P2;Temp;Humidity;BMP_temperature;BMP_pressure;BME280_temperature;BME280_humidity;BME280_pressure;Samples;Min_cycle;Max_cycle;Signal;HPM_P1;HPM_P2
2022/06/07 00:02:04;;;;;;;0.47;0.40;;;22.60;61.30;;;;;;5022498;28;20052;-17
2022/06/07 00:04:30;;;;;;;0.40;0.38;;;22.60;61.30;;;;;;5025779;28;20052;-17
2022/06/07 00:06:55;;;;;;;0.40;0.40;;;22.60;61.20;;;;;;5034225;28;20939;-18
2022/06/07 00:09:21;;;;;;;0.50;0.50;;;22.60;61.30;;;;;;5034347;28;20095;-19
2022/06/07 00:11:47;;;;;;;0.35;0.32;;;22.60;61.30;;;;;;5033971;28;20085;-17
2022/06/07 00:14:12;;;;;;;0.30;0.30;;;22.60;61.10;;;;;;5034725;28;20048;-17
2022/06/07 00:16:38;;;;;;;0.40;0.20;;;22.60;61.30;;;;;;5034516;28;20188;-18
2022/06/07 00:19:03;;;;;;;0.30;0.30;;;22.50;61.30;;;;;;5033494;28;20056;-18
2022/06/07 00:21:29;;;;;;;0.38;0.30;;;22.50;61.30;;;;;;5033345;28;20557;-17
2022/06/07 00:23:55;;;;;;;0.30;0.30;;;22.50;61.30;;;;;;5037044;28;20081;-18
2022/06/07 00:26:21;;;;;;;0.30;0.30;;;22.50;61.30;;;;;;5037769;28;20459;-18
2022/06/07 00:28:47;;;;;;;0.30;0.30;;;22.50;61.30;;;;;;5031383;28;20050;-17
2022/06/07 00:31:13;;;;;;;1.38;0.43;;;22.50;61.30;;;;;;5037372;28;20030;-17
2022/06/07 00:33:38;;;;;;;0.47;0.30;;;22.50;62.10;;;;;;5036777;28;20440;-18
2022/06/07 00:36:04;;;;;;;0.50;0.40;;;22.40;61.40;;;;;;5038558;28;20037;-20
2022/06/07 00:38:30;;;;;;;0.40;0.30;;;22.50;61.30;;;;;;5036398;28;20037;-17
2022/06/07 00:40:56;;;;;;;0.45;0.45;;;22.40;61.40;;;;;;5036877;28;20048;-18
2022/06/07 00:43:23;;;;;;;0.30;0.30;;;22.40;61.40;;;;;;5037274;28;20045;-18
2022/06/07 00:45:48;;;;;;;0.30;0.30;;;22.40;61.30;;;;;;5038288;28;20045;-19
2022/06/07 00:48:15;;;;;;;0.30;0.30;;;22.40;61.40;;;;;;5024913;28;20050;-18
2022/06/07 00:51:02;;;;;;;0.50;0.50;;;22.40;61.40;;;;;;5034400;28;20045;-18
2022/06/07 00:53:32;;;;;;;1.80;0.40;;;22.40;61.40;;;;;;5037363;28;20099;-18
2022/06/07 00:55:58;;;;;;;0.50;0.40;;;22.30;61.40;;;;;;5036705;28;20053;-18
2022/06/07 00:58:25;;;;;;;0.30;0.30;;;22.40;61.20;;;;;;5033856;28;20059;-17
2022/06/07 01:00:52;;;;;;;0.43;0.30;;;22.30;61.20;;;;;;5038030;28;20052;-20
2022/06/07 01:03:20;;;;;;;0.32;0.30;;;22.40;61.20;;;;;;5037121;28;20522;-17
2022/06/07 01:05:50;;;;;;;0.28;0.28;;;22.40;61.30;;;;;;5037513;28;20046;-24
2022/06/07 01:11:00;;;;;;;0.35;0.30;;;22.40;61.20;;;;;;5020553;28;20175;-18
2022/06/07 01:13:28;;;;;;;0.30;0.30;;;22.30;61.10;;;;;;5016838;28;20084;-18
2022/06/07 01:16:04;;;;;;;0.40;0.40;;;22.30;61.20;;;;;;5025094;28;20135;-19
2022/06/07 01:18:31;;;;;;;0.47;0.40;;;22.40;61.20;;;;;;5016257;28;20050;-17
2022/06/07 01:21:18;;;;;;;0.35;0.20;;;22.30;61.10;;;;;;5017877;28;20478;-17
2022/06/07 01:23:44;;;;;;;0.35;0.30;;;22.30;61.10;;;;;;5016730;28;20426;-18
2022/06/07 01:26:10;;;;;;;0.20;0.20;;;22.30;61.20;;;;;;5017631;28;20038;-18
2022/06/07 01:28:36;;;;;;;0.30;0.30;;;22.30;61.20;;;;;;5014608;28;20113;-17
2022/06/07 01:31:02;;;;;;;0.22;0.22;;;22.30;61.20;;;;;;5017478;28;20073;-19
2022/06/07 01:33:27;;;;;;;0.30;0.30;;;22.30;61.30;;;;;;5016617;28;20046;-17
2022/06/07 01:36:06;;;;;;;0.20;0.20;;;22.20;61.20;;;;;;5012520;28;20050;-18
2022/06/07 01:38:33;;;;;;;0.30;0.30;;;22.30;61.20;;;;;;5016460;28;20081;-17
2022/06/07 01:43:43;;;;;;;0.30;0.30;;;22.30;61.20;;;;;;5008117;28;20566;-18
2022/06/07 01:46:08;;;;;;;0.40;0.40;;;22.30;61.10;;;;;;5016505;28;20454;-18
2022/06/07 01:48:34;;;;;;;0.45;0.30;;;22.30;61.10;;;;;;5016033;28;20057;-18
2022/06/07 01:51:03;;;;;;;0.20;0.20;;;22.30;61.10;;;;;;5017421;28;20046;-19
2022/06/07 01:53:29;;;;;;;0.30;0.30;;;22.30;61.10;;;;;;5016445;28;20050;-17
2022/06/07 01:56:11;;;;;;;0.40;0.30;;;22.30;61.90;;;;;;5016281;28;20045;-18
2022/06/07 01:58:38;;;;;;;0.35;0.20;;;22.20;61.10;;;;;;5016613;28;20560;-19
2022/06/07 02:01:04;;;;;;;0.40;0.40;;;22.30;61.10;;;;;;5017249;28;20030;-18
2022/06/07 02:03:30;;;;;;;0.30;0.30;;;22.20;61.00;;;;;;5015520;28;20053;-18
2022/06/07 02:06:03;;;;;;;0.30;0.30;;;22.20;61.10;;;;;;5017200;28;20124;-18
2022/06/07 02:08:29;;;;;;;0.30;0.30;;;22.20;61.20;;;;;;5006294;28;20446;-17
2022/06/07 02:10:55;;;;;;;0.52;0.52;;;22.20;61.10;;;;;;5020257;28;20161;-18
2022/06/07 02:13:21;;;;;;;0.35;0.22;;;22.20;61.30;;;;;;5025469;28;20406;-17
2022/06/07 02:15:47;;;;;;;0.95;0.45;;;22.20;61.10;;;;;;5023667;28;20042;-18
2022/06/07 02:18:13;;;;;;;0.68;0.52;;;22.20;61.20;;;;;;5026804;28;20490;-18
2022/06/07 02:20:38;;;;;;;0.60;0.30;;;22.20;61.20;;;;;;5035009;28;20446;-17
2022/06/07 02:23:05;;;;;;;0.40;0.28;;;22.20;61.30;;;;;;5036303;28;20049;-17
2022/06/07 02:25:34;;;;;;;0.40;0.30;;;22.20;61.20;;;;;;5034496;28;20045;-18
2022/06/07 02:27:59;;;;;;;0.22;0.20;;;22.20;61.30;;;;;;5035242;28;20057;-17
2022/06/07 02:30:25;;;;;;;0.20;0.20;;;22.20;61.10;;;;;;5033497;28;20037;-20
2022/06/07 02:32:51;;;;;;;0.30;0.30;;;22.30;61.00;;;;;;5036277;28;20407;-18
2022/06/07 02:35:16;;;;;;;0.30;0.30;;;22.20;61.00;;;;;;5033267;28;20156;-17
2022/06/07 02:37:42;;;;;;;0.30;0.30;;;22.20;61.10;;;;;;5034106;28;20045;-18
2022/06/07 02:40:07;;;;;;;0.47;0.20;;;22.20;61.10;;;;;;5034987;28;20128;-17
2022/06/07 02:42:33;;;;;;;0.40;0.28;;;22.20;61.10;;;;;;5034334;28;20041;-18
2022/06/07 02:44:59;;;;;;;0.40;0.40;;;22.10;61.00;;;;;;5035207;28;20068;-17
2022/06/07 02:47:25;;;;;;;0.20;0.20;;;22.20;61.10;;;;;;5035314;28;20056;-17
2022/06/07 02:49:52;;;;;;;0.73;0.40;;;22.20;61.10;;;;;;5033627;28;20045;-18
2022/06/07 02:52:18;;;;;;;0.30;0.30;;;22.20;61.20;;;;;;5030472;28;20037;-17
2022/06/07 02:54:43;;;;;;;0.45;0.45;;;22.20;61.00;;;;;;5034247;28;20095;-17
2022/06/07 02:57:09;;;;;;;0.20;0.20;;;22.20;61.10;;;;;;5035695;28;20116;-17
2022/06/07 02:59:34;;;;;;;0.45;0.40;;;22.10;61.20;;;;;;5029048;28;20491;-17
2022/06/07 03:02:00;;;;;;;0.30;0.22;;;22.10;61.30;;;;;;5028995;28;20041;-18
2022/06/07 03:04:26;;;;;;;0.73;0.40;;;22.10;61.10;;;;;;5034699;28;20055;-18
2022/06/07 03:06:52;;;;;;;0.60;0.30;;;22.10;61.10;;;;;;5034864;28;20041;-18
2022/06/07 03:09:17;;;;;;;0.68;0.30;;;22.10;61.20;;;;;;5034560;28;20050;-18
2022/06/07 03:11:43;;;;;;;0.30;0.20;;;22.10;61.10;;;;;;5034812;28;20416;-19
2022/06/07 03:14:10;;;;;;;0.40;0.20;;;22.10;61.20;;;;;;5034638;28;20057;-18
2022/06/07 03:16:36;;;;;;;0.47;0.35;;;22.10;61.20;;;;;;5030466;28;20120;-18
2022/06/07 03:19:01;;;;;;;0.70;0.50;;;22.10;61.00;;;;;;5034639;28;20123;-17
2022/06/07 03:21:28;;;;;;;0.40;0.25;;;22.20;61.00;;;;;;5035302;28;20047;-18
2022/06/07 03:23:54;;;;;;;0.30;0.20;;;22.20;61.10;;;;;;5016807;28;20065;-17
2022/06/07 03:26:19;;;;;;;0.20;0.20;;;22.10;61.10;;;;;;5007715;28;20522;-17
2022/06/07 03:28:45;;;;;;;1.42;0.38;;;22.10;61.10;;;;;;5015052;28;20046;-17
2022/06/07 03:31:13;;;;;;;0.20;0.20;;;22.10;61.20;;;;;;5015824;28;20053;-18
2022/06/07 03:33:39;;;;;;;0.63;0.30;;;22.10;61.30;;;;;;5014438;28;20128;-17
2022/06/07 03:36:13;;;;;;;0.47;0.25;;;22.10;61.20;;;;;;5015022;28;20553;-19
2022/06/07 03:38:40;;;;;;;0.45;0.38;;;22.10;61.10;;;;;;5014167;28;20041;-17
2022/06/07 03:41:05;;;;;;;0.30;0.25;;;22.10;61.20;;;;;;5015355;28;20129;-17
2022/06/07 03:43:31;;;;;;;0.57;0.43;;;22.10;61.20;;;;;;5013102;28;20129;-17
2022/06/07 03:46:08;;;;;;;0.30;0.30;;;22.10;61.20;;;;;;5015563;28;20495;-17
2022/06/07 03:48:34;;;;;;;0.30;0.30;;;22.10;61.20;;;;;;5012635;28;20533;-17
2022/06/07 03:50:59;;;;;;;0.25;0.25;;;22.20;61.10;;;;;;5011049;28;20499;-17
2022/06/07 03:53:25;;;;;;;0.30;0.28;;;22.10;61.10;;;;;;5004570;28;20511;-18
2022/06/07 03:55:52;;;;;;;0.52;0.20;;;22.10;60.90;;;;;;5012935;28;20053;-17
2022/06/07 03:58:18;;;;;;;0.30;0.13;;;22.10;61.10;;;;;;5009770;28;20041;-17
2022/06/07 04:00:44;;;;;;;0.30;0.30;;;22.10;61.30;;;;;;5018189;28;20042;-17
2022/06/07 04:03:09;;;;;;;0.38;0.30;;;22.10;61.30;;;;;;5019494;28;20511;-17
2022/06/07 04:05:42;;;;;;;0.35;0.30;;;22.10;61.20;;;;;;5017882;28;20415;-18
2022/06/07 04:08:10;;;;;;;0.40;0.20;;;22.10;61.00;;;;;;5019107;28;20089;-19
2022/06/07 04:10:36;;;;;;;0.30;0.30;;;22.20;61.00;;;;;;5017809;28;20076;-18
2022/06/07 04:13:02;;;;;;;1.75;0.30;;;22.10;60.90;;;;;;5011425;28;20063;-19
2022/06/07 04:15:27;;;;;;;1.65;0.47;;;22.10;61.00;;;;;;5019035;28;20136;-17
2022/06/07 04:17:53;;;;;;;0.30;0.30;;;22.10;61.10;;;;;;5018594;28;20046;-18
2022/06/07 04:20:21;;;;;;;0.47;0.40;;;22.10;61.10;;;;;;5014925;28;20056;-18
2022/06/07 04:22:46;;;;;;;0.50;0.20;;;22.10;61.20;;;;;;5005941;28;20104;-17
2022/06/07 04:25:12;;;;;;;0.40;0.30;;;22.10;61.10;;;;;;5012637;28;20053;-18
2022/06/07 04:27:37;;;;;;;0.60;0.60;;;22.10;61.00;;;;;;5017127;28;20048;-18
2022/06/07 04:30:05;;;;;;;0.40;0.38;;;22.10;61.10;;;;;;5010343;28;20535;-17
2022/06/07 04:32:31;;;;;;;0.30;0.25;;;22.10;61.20;;;;;;5017525;28;20054;-18
2022/06/07 04:34:57;;;;;;;0.20;0.20;;;22.10;61.40;;;;;;5026170;28;20080;-17
2022/06/07 04:37:23;;;;;;;0.30;0.30;;;22.10;61.10;;;;;;5032047;28;20127;-17
2022/06/07 04:39:48;;;;;;;0.30;0.20;;;22.10;61.10;;;;;;5026874;28;20056;-18
2022/06/07 04:42:14;;;;;;;0.38;0.25;;;22.10;61.20;;;;;;5037453;28;20159;-18
2022/06/07 04:44:39;;;;;;;0.20;0.20;;;22.10;61.10;;;;;;5037779;28;20409;-18
2022/06/07 04:47:05;;;;;;;0.30;0.30;;;22.10;61.20;;;;;;5037356;28;20041;-17
2022/06/07 04:49:31;;;;;;;0.50;0.20;;;22.10;61.10;;;;;;5036362;28;20125;-18
2022/06/07 04:51:56;;;;;;;0.38;0.28;;;22.00;61.30;;;;;;5030456;28;20042;-17
2022/06/07 04:54:22;;;;;;;0.80;0.30;;;22.00;61.30;;;;;;5037427;28;20061;-17
2022/06/07 04:56:48;;;;;;;0.43;0.30;;;22.00;61.20;;;;;;5037299;28;20038;-17
2022/06/07 04:59:13;;;;;;;0.75;0.30;;;22.00;61.10;;;;;;5037365;28;20041;-17
2022/06/07 05:01:41;;;;;;;0.52;0.30;;;22.10;61.00;;;;;;5033478;28;20042;-19
2022/06/07 05:04:07;;;;;;;0.40;0.30;;;22.10;60.90;;;;;;5029213;28;20046;-18
2022/06/07 05:06:38;;;;;;;0.38;0.20;;;22.10;61.10;;;;;;5025105;28;20038;-19
2022/06/07 05:09:06;;;;;;;0.70;0.30;;;22.00;61.10;;;;;;5020856;28;20045;-17
2022/06/07 05:11:31;;;;;;;0.80;0.20;;;22.00;61.20;;;;;;5006416;28;20133;-18
2022/06/07 05:13:58;;;;;;;0.40;0.40;;;22.00;61.20;;;;;;5009844;28;20170;-17
2022/06/07 05:16:24;;;;;;;0.63;0.40;;;22.00;61.30;;;;;;5003480;28;20046;-18
2022/06/07 05:18:50;;;;;;;0.38;0.32;;;22.00;61.30;;;;;;5008012;28;20157;-17
2022/06/07 05:21:16;;;;;;;0.73;0.30;;;22.00;61.50;;;;;;5021547;28;20049;-18
2022/06/07 05:23:42;;;;;;;0.77;0.30;;;22.10;61.90;;;;;;5030607;28;20120;-19
2022/06/07 05:26:15;;;;;;;0.32;0.30;;;22.00;61.90;;;;;;5024581;28;20561;-19
2022/06/07 05:28:42;;;;;;;0.25;0.25;;;22.10;62.50;;;;;;5012673;28;20080;-18
2022/06/07 05:31:07;;;;;;;1.38;0.38;;;22.10;61.50;;;;;;5030311;28;20052;-18
2022/06/07 05:33:33;;;;;;;0.20;0.20;;;22.00;61.60;;;;;;5026099;28;20117;-19
2022/06/07 05:35:59;;;;;;;0.40;0.30;;;22.00;62.10;;;;;;5029646;28;20050;-17
2022/06/07 05:38:24;;;;;;;0.30;0.22;;;22.00;62.30;;;;;;5031648;28;20057;-18
2022/06/07 05:40:51;;;;;;;0.47;0.40;;;22.00;62.40;;;;;;5027612;28;20068;-17
2022/06/07 05:43:17;;;;;;;0.65;0.40;;;22.00;62.60;;;;;;5030815;28;20049;-20
2022/06/07 05:45:50;;;;;;;0.50;0.40;;;22.00;62.70;;;;;;5029682;28;20082;-18
2022/06/07 05:48:16;;;;;;;0.63;0.35;;;22.00;62.80;;;;;;5030452;28;20080;-18
2022/06/07 05:50:44;;;;;;;0.90;0.30;;;22.00;62.80;;;;;;5029764;28;20075;-19
2022/06/07 05:53:11;;;;;;;0.75;0.43;;;22.00;62.90;;;;;;5029902;28;20052;-18
2022/06/07 05:55:36;;;;;;;1.10;0.47;;;21.90;63.00;;;;;;5028935;28;20064;-19
2022/06/07 05:58:02;;;;;;;2.33;0.70;;;21.90;63.00;;;;;;5030384;28;20046;-17
2022/06/07 06:00:28;;;;;;;2.08;0.70;;;21.90;63.10;;;;;;5028943;28;20054;-18
2022/06/07 06:02:53;;;;;;;1.02;0.55;;;21.90;63.00;;;;;;5030127;28;20041;-20
2022/06/07 06:05:19;;;;;;;1.13;0.55;;;21.90;63.20;;;;;;5027372;28;20057;-18
2022/06/07 06:10:28;;;;;;;1.15;0.30;;;22.00;62.80;;;;;;5025751;28;20121;-18
2022/06/07 06:12:54;;;;;;;2.00;0.77;;;22.00;63.00;;;;;;5027649;28;20140;-18
2022/06/07 06:15:21;;;;;;;1.10;0.50;;;21.90;63.00;;;;;;5018741;28;20053;-19
2022/06/07 06:17:46;;;;;;;2.30;0.70;;;21.90;63.50;;;;;;5034170;28;20061;-18
2022/06/07 06:20:12;;;;;;;1.75;0.70;;;21.90;63.70;;;;;;5035896;28;20564;-18
2022/06/07 06:22:37;;;;;;;2.33;0.60;;;21.90;63.90;;;;;;5027498;28;20042;-19
2022/06/07 06:25:04;;;;;;;1.25;0.47;;;21.80;64.40;;;;;;5025617;28;20054;-19
2022/06/07 06:27:32;;;;;;;1.20;0.55;;;21.80;63.50;;;;;;5020660;28;20529;-19
2022/06/07 06:29:58;;;;;;;1.02;0.50;;;21.90;62.90;;;;;;5034733;28;20042;-18
2022/06/07 06:32:24;;;;;;;1.55;0.40;;;21.90;62.60;;;;;;5036018;28;20498;-18
2022/06/07 06:34:50;;;;;;;2.20;0.43;;;21.90;62.70;;;;;;5035177;28;20498;-19
2022/06/07 06:37:15;;;;;;;1.13;0.47;;;22.00;62.50;;;;;;5034000;28;20045;-19
2022/06/07 06:39:41;;;;;;;0.60;0.40;;;21.90;62.50;;;;;;5035650;28;20407;-19
2022/06/07 06:42:07;;;;;;;0.95;0.50;;;21.90;62.60;;;;;;5036064;28;20184;-17
2022/06/07 06:44:32;;;;;;;1.55;0.40;;;21.90;62.50;;;;;;5034986;28;20136;-18
2022/06/07 06:47:00;;;;;;;0.93;0.45;;;22.00;62.60;;;;;;5033333;28;20050;-18
2022/06/07 06:49:27;;;;;;;0.40;0.30;;;21.90;62.50;;;;;;5035225;28;20041;-18
2022/06/07 06:51:53;;;;;;;0.60;0.40;;;22.00;62.60;;;;;;5035117;28;20129;-19
2022/06/07 06:54:19;;;;;;;0.88;0.50;;;21.90;62.50;;;;;;5025826;28;20546;-18
2022/06/07 06:56:46;;;;;;;0.85;0.47;;;22.00;62.50;;;;;;5028240;28;20060;-18
2022/06/07 06:59:12;;;;;;;1.10;0.60;;;22.00;62.50;;;;;;5034740;28;20080;-18
2022/06/07 07:01:38;;;;;;;0.73;0.50;;;21.90;62.40;;;;;;5035759;28;20038;-20
2022/06/07 07:04:06;;;;;;;0.70;0.40;;;22.00;62.50;;;;;;5033847;28;20056;-18
2022/06/07 07:06:32;;;;;;;0.90;0.50;;;21.90;62.40;;;;;;5035925;28;20048;-18
2022/06/07 07:08:58;;;;;;;0.52;0.32;;;21.90;62.40;;;;;;5034630;28;20041;-19
2022/06/07 07:11:24;;;;;;;2.22;0.50;;;21.90;63.20;;;;;;5034280;28;20042;-19
2022/06/07 07:13:51;;;;;;;0.77;0.77;;;21.90;62.40;;;;;;5034579;28;20049;-19
2022/06/07 07:16:18;;;;;;;0.88;0.55;;;21.90;62.30;;;;;;5035579;28;20063;-18
2022/06/07 07:18:44;;;;;;;1.48;0.70;;;21.90;62.50;;;;;;5035203;28;20048;-18
2022/06/07 07:21:13;;;;;;;0.77;0.40;;;21.90;62.30;;;;;;5034818;28;20050;-18
2022/06/07 07:23:38;;;;;;;0.63;0.40;;;21.90;62.30;;;;;;5033981;28;20077;-19
2022/06/07 07:26:06;;;;;;;1.50;0.60;;;21.90;62.40;;;;;;5034043;28;20063;-18
2022/06/07 07:28:33;;;;;;;0.75;0.60;;;22.00;62.40;;;;;;5017933;28;20040;-18
2022/06/07 07:31:03;;;;;;;1.08;0.50;;;21.90;62.30;;;;;;5034309;28;20128;-18
2022/06/07 07:33:29;;;;;;;0.50;0.40;;;22.00;62.30;;;;;;5035584;28;20502;-18
2022/06/07 07:35:55;;;;;;;1.10;0.52;;;21.90;62.30;;;;;;5034822;28;20391;-19
2022/06/07 07:38:21;;;;;;;1.05;0.60;;;21.90;62.30;;;;;;5034650;28;20514;-19
2022/06/07 07:40:46;;;;;;;0.68;0.40;;;22.00;62.30;;;;;;5034340;28;20593;-19
2022/06/07 07:43:12;;;;;;;1.08;0.50;;;21.90;62.20;;;;;;5033966;28;20076;-18
2022/06/07 07:45:38;;;;;;;0.82;0.55;;;22.00;62.30;;;;;;5035238;28;20052;-18
2022/06/07 07:48:04;;;;;;;1.77;0.60;;;21.90;62.30;;;;;;5032667;28;20053;-18
2022/06/07 07:50:29;;;;;;;0.30;0.20;;;22.00;62.20;;;;;;5035165;28;20061;-19
2022/06/07 07:52:58;;;;;;;1.73;0.68;;;22.00;62.20;;;;;;5034714;28;20046;-18
2022/06/07 07:55:24;;;;;;;0.40;0.40;;;21.90;62.20;;;;;;5034285;28;20049;-17
2022/06/07 07:57:49;;;;;;;1.52;0.57;;;22.00;62.20;;;;;;5030841;28;20133;-18
2022/06/07 08:00:15;;;;;;;0.60;0.40;;;22.00;63.20;;;;;;5029289;28;20049;-18
2022/06/07 08:02:40;;;;;;;1.00;0.50;;;22.00;62.20;;;;;;5032576;28;20103;-17
2022/06/07 08:05:06;;;;;;;0.38;0.35;;;22.00;62.20;;;;;;5034253;28;20073;-18
2022/06/07 08:07:32;;;;;;;0.63;0.43;;;22.00;62.20;;;;;;5034748;28;20033;-18
2022/06/07 08:10:00;;;;;;;0.52;0.52;;;22.00;62.20;;;;;;5033496;28;20041;-17
2022/06/07 08:12:26;;;;;;;1.13;0.57;;;22.00;62.20;;;;;;5027404;28;20115;-20
2022/06/07 08:14:52;;;;;;;0.77;0.40;;;22.00;62.20;;;;;;5034457;28;20053;-17
2022/06/07 08:17:18;;;;;;;0.40;0.40;;;22.00;62.10;;;;;;5033764;28;20045;-19
2022/06/07 08:19:43;;;;;;;0.45;0.40;;;22.00;62.20;;;;;;5028638;28;20050;-21
2022/06/07 08:22:09;;;;;;;0.50;0.40;;;22.00;62.10;;;;;;5034808;28;20041;-18
2022/06/07 08:24:36;;;;;;;0.55;0.43;;;22.00;62.10;;;;;;5033566;28;20053;-18
2022/06/07 08:27:02;;;;;;;0.93;0.50;;;22.00;62.10;;;;;;5034119;28;20446;-18
2022/06/07 08:29:28;;;;;;;0.70;0.40;;;22.10;62.10;;;;;;5033898;28;20063;-19
2022/06/07 08:31:53;;;;;;;0.47;0.30;;;22.10;62.20;;;;;;5033620;28;20044;-20
2022/06/07 08:39:47;;;;;;;0.52;0.40;;;22.10;62.60;;;;;;5034226;28;20098;-18
2022/06/07 08:42:15;;;;;;;0.85;0.57;;;22.10;62.10;;;;;;5034591;28;20038;-18
2022/06/07 08:44:44;;;;;;;0.93;0.32;;;22.00;62.10;;;;;;5035805;28;20056;-19
2022/06/07 08:47:25;;;;;;;0.43;0.35;;;22.00;62.10;;;;;;5036699;28;20052;-18
2022/06/07 08:49:55;;;;;;;1.17;0.45;;;22.00;62.10;;;;;;5017981;28;20186;-19
2022/06/07 08:52:30;;;;;;;0.40;0.40;;;22.10;62.20;;;;;;5022430;28;20412;-18
2022/06/07 08:54:58;;;;;;;0.82;0.40;;;22.00;62.10;;;;;;5022998;28;20052;-18
2022/06/07 08:57:36;;;;;;;0.77;0.43;;;22.00;62.50;;;;;;5019875;28;20048;-18
2022/06/07 09:00:14;;;;;;;0.55;0.40;;;22.00;62.20;;;;;;5036312;28;20520;-18
2022/06/07 09:03:04;;;;;;;0.52;0.32;;;22.00;62.20;;;;;;5037058;28;20046;-18
2022/06/07 09:05:30;;;;;;;0.40;0.32;;;22.00;62.20;;;;;;5031950;28;20049;-18
2022/06/07 09:07:55;;;;;;;1.67;0.70;;;22.00;62.30;;;;;;5036174;28;20042;-17
2022/06/07 09:13:16;;;;;;;;;;;22.10;63.00;;;;;;5037794;28;20053;-18
2022/06/07 09:15:42;;;;;;;0.73;0.43;;;22.10;62.10;;;;;;5036504;28;19917;-18
2022/06/07 09:18:09;;;;;;;0.98;0.50;;;22.10;61.90;;;;;;5037034;28;20064;-17
2022/06/07 09:20:38;;;;;;;0.20;0.20;;;22.00;61.90;;;;;;5035576;28;20514;-17
2022/06/07 09:23:05;;;;;;;1.15;0.40;;;22.10;62.00;;;;;;5036013;28;20054;-18
2022/06/07 09:25:38;;;;;;;1.40;0.40;;;22.00;61.90;;;;;;5036283;28;20060;-17
2022/06/07 09:28:05;;;;;;;1.13;0.50;;;22.10;61.90;;;;;;5036245;28;20065;-18
2022/06/07 09:30:35;;;;;;;0.57;0.45;;;22.00;61.90;;;;;;5036671;28;20045;-19
2022/06/07 09:33:10;;;;;;;0.75;0.43;;;22.00;62.10;;;;;;5036875;28;20124;-19
2022/06/07 09:35:42;;;;;;;0.55;0.47;;;22.00;62.10;;;;;;5037669;28;20045;-18
2022/06/07 09:38:11;;;;;;;0.75;0.40;;;22.10;62.20;;;;;;5036018;28;20122;-19
2022/06/07 09:40:42;;;;;;;0.40;0.35;;;22.10;62.10;;;;;;5036470;28;20466;-19
2022/06/07 09:43:15;;;;;;;0.82;0.45;;;22.00;62.20;;;;;;5035321;28;20094;-18
2022/06/07 09:45:44;;;;;;;0.50;0.40;;;22.00;62.30;;;;;;5037994;28;20041;-19
2022/06/07 09:48:40;;;;;;;0.90;0.35;;;22.00;62.40;;;;;;5035811;28;20084;-19
2022/06/07 09:51:08;;;;;;;0.90;0.47;;;22.10;62.10;;;;;;5027237;28;20128;-18
2022/06/07 09:53:37;;;;;;;0.88;0.32;;;22.10;62.10;;;;;;5035303;28;20072;-18
2022/06/07 09:56:24;;;;;;;0.30;0.20;;;22.10;62.30;;;;;;5035720;28;20037;-18
2022/06/07 09:59:00;;;;;;;0.45;0.30;;;22.10;62.40;;;;;;5035366;28;20049;-20
2022/06/07 10:01:30;;;;;;;0.40;0.32;;;22.10;62.50;;;;;;5035759;28;20042;-18
2022/06/07 10:03:56;;;;;;;0.30;0.30;;;22.00;62.60;;;;;;5033596;28;20498;-19
2022/06/07 10:06:36;;;;;;;0.70;0.28;;;22.10;62.30;;;;;;5022408;28;20509;-19
2022/06/07 10:09:17;;;;;;;0.65;0.32;;;22.10;62.60;;;;;;5027090;28;20533;-19
2022/06/07 10:12:10;;;;;;;0.70;0.45;;;22.10;62.10;;;;;;5036131;28;20045;-21
2022/06/07 10:14:50;;;;;;;0.55;0.28;;;22.10;62.40;;;;;;5023414;28;20537;-19
2022/06/07 10:17:54;;;;;;;0.90;0.30;;;22.10;62.20;;;;;;5026990;28;20041;-18
2022/06/07 10:21:08;;;;;;;0.50;0.30;;;22.10;62.50;;;;;;5052833;28;20056;-20
2022/06/07 10:24:10;;;;;;;0.32;0.30;;;22.10;62.50;;;;;;5020486;28;20061;-18
2022/06/07 10:26:55;;;;;;;0.40;0.40;;;22.10;62.50;;;;;;5014820;28;20129;-20
2022/06/07 10:29:50;;;;;;;0.32;0.20;;;22.10;62.50;;;;;;5035021;28;20046;-19
2022/06/07 10:32:34;;;;;;;0.75;0.40;;;22.10;62.40;;;;;;5035346;28;20038;-20
2022/06/07 10:35:08;;;;;;;1.42;0.30;;;22.10;62.50;;;;;;5031405;28;20207;-18
2022/06/07 10:37:49;;;;;;;0.32;0.25;;;22.10;62.60;;;;;;5035350;28;20033;-19
2022/06/07 10:40:41;;;;;;;0.73;0.30;;;22.10;62.60;;;;;;5034882;28;20052;-19
2022/06/07 10:43:25;;;;;;;0.47;0.30;;;22.10;62.60;;;;;;5018587;28;20057;-18
2022/06/07 10:45:54;;;;;;;0.82;0.50;;;22.10;62.50;;;;;;5033921;28;20045;-22
2022/06/07 10:48:40;;;;;;;0.47;0.30;;;22.10;62.50;;;;;;5018127;28;20045;-18
2022/06/07 10:54:15;;;;;;;0.43;0.30;;;22.10;62.40;;;;;;5033222;28;20048;-18
2022/06/07 10:56:45;;;;;;;0.70;0.47;;;22.20;62.50;;;;;;5033651;28;20045;-19
2022/06/07 10:59:19;;;;;;;0.47;0.20;;;22.20;62.30;;;;;;5033140;28;20390;-18
2022/06/07 11:01:53;;;;;;;0.80;0.60;;;22.20;62.30;;;;;;5035856;28;20044;-19
2022/06/07 11:10:31;;;;;;;0.65;0.20;;;22.20;62.20;;;;;;5015426;28;20515;-18
2022/06/07 11:13:07;;;;;;;0.45;0.38;;;22.20;62.30;;;;;;5018081;28;20054;-18
2022/06/07 11:16:15;;;;;;;1.92;0.30;;;22.20;62.40;;;;;;5017511;28;20461;-18
2022/06/07 11:18:41;;;;;;;0.63;0.28;;;22.20;62.60;;;;;;5024800;28;20053;-19
2022/06/07 11:21:06;;;;;;;1.20;0.60;;;22.20;62.50;;;;;;5027786;28;20076;-18
2022/06/07 11:23:52;;;;;;;0.90;0.40;;;22.20;62.20;;;;;;5031166;28;20072;-18
2022/06/07 11:26:18;;;;;;;0.32;0.25;;;22.30;61.80;;;;;;5024502;28;20104;-21
2022/06/07 11:28:53;;;;;;;0.47;0.30;;;22.30;61.80;;;;;;5025602;28;20045;-19
2022/06/07 11:31:35;;;;;;;0.50;0.38;;;22.30;62.10;;;;;;5009156;28;20115;-19
2022/06/07 11:34:10;;;;;;;0.52;0.28;;;22.30;61.90;;;;;;5015785;28;20048;-20
2022/06/07 11:36:38;;;;;;;1.63;0.60;;;22.30;62.00;;;;;;4692338;28;10001684;-19
2022/06/07 11:39:04;;;;;;;0.85;0.40;;;22.40;61.90;;;;;;5051588;28;20059;-18
2022/06/07 11:41:40;;;;;;;0.55;0.30;;;22.30;62.40;;;;;;5049748;28;20048;-18
2022/06/07 11:44:08;;;;;;;0.52;0.30;;;22.40;61.70;;;;;;5050953;28;20098;-21
2022/06/07 11:46:33;;;;;;;0.63;0.40;;;22.40;61.90;;;;;;5057705;28;20043;-20
2022/06/07 11:49:20;;;;;;;0.70;0.30;;;22.40;62.30;;;;;;5057729;28;20037;-18
2022/06/07 11:52:12;;;;;;;0.70;0.40;;;22.40;61.80;;;;;;5054935;28;20083;-18
2022/06/07 11:54:48;;;;;;;0.43;0.30;;;22.40;61.90;;;;;;5050984;28;20060;-18
2022/06/07 11:57:37;;;;;;;0.57;0.30;;;22.40;62.30;;;;;;5049455;28;20033;-19
2022/06/07 12:00:20;;;;;;;0.25;0.20;;;22.40;62.40;;;;;;5042400;28;20041;-18
2022/06/07 12:03:18;;;;;;;0.50;0.40;;;22.40;62.50;;;;;;5061706;28;20043;-20
2022/06/07 12:06:06;;;;;;;1.13;0.38;;;22.40;62.70;;;;;;5034316;28;20049;-19
2022/06/07 12:08:53;;;;;;;1.98;0.40;;;22.30;62.60;;;;;;5050396;28;20540;-19
2022/06/07 12:11:24;;;;;;;1.05;0.52;;;22.30;62.90;;;;;;5046235;28;20049;-18
2022/06/07 12:14:19;;;;;;;0.40;0.22;;;22.40;63.00;;;;;;5056223;28;20475;-19
2022/06/07 12:16:55;;;;;;;0.77;0.55;;;22.30;62.80;;;;;;5049461;28;20048;-18
2022/06/07 12:19:29;;;;;;;0.40;0.40;;;22.40;62.90;;;;;;5063227;28;20049;-18
2022/06/07 12:22:01;;;;;;;0.50;0.28;;;22.40;62.80;;;;;;5080221;28;20056;-18
2022/06/07 12:24:27;;;;;;;0.38;0.28;;;22.50;63.00;;;;;;5085519;28;20056;-18
2022/06/07 12:26:52;;;;;;;0.55;0.30;;;22.50;62.80;;;;;;5060763;28;20501;-18
2022/06/07 12:29:29;;;;;;;0.60;0.40;;;22.40;63.00;;;;;;5079316;28;20040;-19
2022/06/07 12:32:05;;;;;;;0.52;0.40;;;22.50;63.00;;;;;;5073751;28;20072;-18
2022/06/07 12:34:33;;;;;;;0.47;0.30;;;22.50;62.90;;;;;;5060747;28;20037;-18
2022/06/07 12:37:09;;;;;;;0.65;0.40;;;22.50;62.80;;;;;;5059941;28;20045;-19
2022/06/07 12:39:49;;;;;;;0.65;0.20;;;22.50;62.80;;;;;;5066492;28;20044;-18
2022/06/07 12:42:18;;;;;;;0.63;0.60;;;22.50;62.20;;;;;;5076662;28;20068;-18
2022/06/07 12:45:37;;;;;;;0.45;0.32;;;22.60;62.40;;;;;;5062708;28;20079;-18
2022/06/07 12:48:05;;;;;;;0.50;0.45;;;22.50;62.40;;;;;;5070385;28;20051;-18
2022/06/07 12:50:33;;;;;;;1.40;0.30;;;22.60;62.60;;;;;;5063438;28;20048;-19
2022/06/07 12:52:59;;;;;;;0.30;0.20;;;22.60;62.60;;;;;;5093975;28;20048;-18
2022/06/07 12:55:36;;;;;;;0.52;0.40;;;22.50;62.70;;;;;;5060424;28;20048;-18
2022/06/07 12:58:07;;;;;;;0.50;0.30;;;22.50;62.60;;;;;;5076680;28;20044;-19
2022/06/07 13:00:43;;;;;;;0.80;0.40;;;22.60;62.30;;;;;;5062859;28;20060;-20
2022/06/07 13:03:27;;;;;;;0.50;0.30;;;22.60;62.40;;;;;;5076529;28;20049;-18
2022/06/07 13:06:04;;;;;;;0.90;0.25;;;22.60;62.60;;;;;;5084037;28;20393;-18
2022/06/07 13:08:35;;;;;;;0.28;0.28;;;22.60;62.50;;;;;;5079579;28;20405;-18
2022/06/07 13:11:02;;;;;;;0.30;0.30;;;22.60;62.50;;;;;;5059137;28;20066;-19
2022/06/07 13:13:32;;;;;;;0.63;0.30;;;22.60;62.70;;;;;;5067980;28;20493;-17
2022/06/07 13:16:00;;;;;;;0.45;0.20;;;22.60;62.90;;;;;;5061532;28;20128;-18
2022/06/07 13:18:32;;;;;;;0.52;0.40;;;22.60;62.50;;;;;;5083009;28;20076;-18
2022/06/07 13:21:16;;;;;;;0.35;0.20;;;22.60;62.60;;;;;;5091362;28;20126;-18
2022/06/07 13:23:42;;;;;;;;;;;22.60;62.50;;;;;;5059629;28;20527;-18
2022/06/07 13:26:29;;;;;;;0.57;0.30;;;22.60;62.60;;;;;;5069993;28;19912;-18
2022/06/07 13:29:17;;;;;;;0.20;0.10;;;22.60;62.50;;;;;;5076190;28;20476;-19